Camino, California
Current Conditions -  °F | °C
As of 7:15 AM on Monday 24 Nov 2014 (Local Time) from KPVF Reporting Station
Clear Clear  
Wind Chill: 41°   Ceiling: Unl
Heat Index: 46°   Visibility: 10mi
Dew Point: 23°   Wind: 10mph
Humidity: 40%   Direction: 80°E
Pressure: 30.34"   Gusts: NA
Location:  38.74°N, 120.68°W
Report Text: KPVF 241515Z AUTO 08009KT 10SM CLR 08/M05 A3034 RMK AO1
Loading
Personal Weather Stations






























Interactive Weather Map New forecast layout! Learn more

10-Day Weather Forecast

Advertisements
Track Severe Weather on mobile